Sabadell, Spain

5:34 PM CEST on September 01, 2015 (GMT +0200)
Sabadell | | Change Station
CLOSE
Current Station
Airport
Location: Sabadell,
Elevation: 820 ft
Nearby Weather Stations

Elev 820 ft 41.52 °N, 2.11 °E | Updated 34 minutes ago

Partly Cloudy
Partly Cloudy
81 °F
Feels Like 82 °F
N
15
Wind Variable Wind from ESE

Today
High -- | Low -- °F
--% Chance of Precip.
Yesterday
High -- | Low -- °F
Precip. -- in
7:17 AM 8:25 PM
Waning Gibbous, 88% visible
Pressure 30.01 in
Visibility 6.2 miles
Clouds Few 3000 ft
Few 4000 ft
Heat Index 82 °F
Dew Point 64 °F
Humidity 58%
Rainfall 0.00 in
Snow Depth Not available.
UV 5 out of 12
Pollen Not available.
Air Quality Not available.
Flu Activity Not available.
METAR LELL 011500Z 12013KT 080V150 9999 FEW030 FEW040TCU 27/18 Q1016
Pressure 30.01 in
Visibility 6.2 miles
Clouds Few 3000 ft
Few 4000 ft
Heat Index 82 °F
Dew Point 64 °F
Humidity 58%
Rainfall 0.00 in
Snow Depth Not available.
UV 5 out of 12
Pollen Not available.
Air Quality Not available.
Flu Activity Not available.
METAR LELL 011500Z 12013KT 080V150 9999 FEW030 FEW040TCU 27/18 Q1016

10-Day Weather Forecast

×

Almanac

Astronomy

Sep. 01, 2015 Rise Set
Actual Time
Civil Twilight
Nautical Twilight
Astronomical Twilight
Moon
Length of Visible Light
Length of Day
Tomorrow will be .
, % of the Moon is Illuminated

Today's Extremes

Country Highs Country Lows

Community

WunderPhotos

Upload Photos

1,851,523 photos uploaded!

WunderBlogs® & News

Nearby

Air Quality

  Air Quality AQ Index Pollutant
Not available.

Snow Depth

Station Depth Elevation

Earthquake Activity

City Distance Mag. Time & Date
Minimum magnitude displayed is 2.5.

Coastal Water Temperatures

Place Temperature

Stations

Nearby Weather Stations

Station Location Temp. Windchill Dew Point Humidity Wind Precip. Elev Updated Type